sensor_id;sensor_type;location;lat;lon;timestamp;pressure;altitude;pressure_sealevel;temperature;humidity
11190;BME280;5651;50.926;4.718;2022-10-17T00:00:51;101361.13;;;14.51;96.87
11190;BME280;5651;50.926;4.718;2022-10-17T00:03:17;101361.91;;;14.56;96.80
11190;BME280;5651;50.926;4.718;2022-10-17T00:05:45;101356.59;;;14.63;96.17
11190;BME280;5651;50.926;4.718;2022-10-17T00:08:13;101350.41;;;14.70;97.06
11190;BME280;5651;50.926;4.718;2022-10-17T00:10:40;101358.19;;;14.78;97.87
11190;BME280;5651;50.926;4.718;2022-10-17T00:13:07;101358.97;;;14.83;98.16
11190;BME280;5651;50.926;4.718;2022-10-17T00:15:33;101356.25;;;14.91;99.73
11190;BME280;5651;50.926;4.718;2022-10-17T00:17:59;101353.50;;;14.98;100.00
11190;BME280;5651;50.926;4.718;2022-10-17T00:20:25;101356.16;;;14.97;99.70
11190;BME280;5651;50.926;4.718;2022-10-17T00:22:51;101355.13;;;15.07;100.00
11190;BME280;5651;50.926;4.718;2022-10-17T00:25:18;101355.88;;;15.15;100.00
11190;BME280;5651;50.926;4.718;2022-10-17T00:27:44;101355.06;;;15.13;98.85
11190;BME280;5651;50.926;4.718;2022-10-17T00:30:12;101358.28;;;15.29;100.00
11190;BME280;5651;50.926;4.718;2022-10-17T00:32:39;101357.50;;;15.24;100.00
11190;BME280;5651;50.926;4.718;2022-10-17T00:35:05;101362.59;;;15.33;100.00
11190;BME280;5651;50.926;4.718;2022-10-17T00:37:31;101355.53;;;15.37;100.00
11190;BME280;5651;50.926;4.718;2022-10-17T00:39:58;101365.06;;;15.44;100.00
11190;BME280;5651;50.926;4.718;2022-10-17T00:42:24;101366.78;;;15.45;100.00
11190;BME280;5651;50.926;4.718;2022-10-17T00:45:06;101369.28;;;15.53;100.00
11190;BME280;5651;50.926;4.718;2022-10-17T00:47:34;101364.84;;;15.57;100.00
11190;BME280;5651;50.926;4.718;2022-10-17T00:50:01;101367.50;;;15.53;100.00
11190;BME280;5651;50.926;4.718;2022-10-17T00:52:29;101367.47;;;15.57;100.00
11190;BME280;5651;50.926;4.718;2022-10-17T00:54:59;101364.81;;;15.58;100.00
11190;BME280;5651;50.926;4.718;2022-10-17T00:57:28;101366.50;;;15.62;100.00
11190;BME280;5651;50.926;4.718;2022-10-17T00:59:56;101360.34;;;15.65;100.00
11190;BME280;5651;50.926;4.718;2022-10-17T01:02:24;101355.03;;;15.66;100.00
11190;BME280;5651;50.926;4.718;2022-10-17T01:04:51;101357.56;;;15.73;100.00
11190;BME280;5651;50.926;4.718;2022-10-17T01:07:19;101354.00;;;15.75;100.00
11190;BME280;5651;50.926;4.718;2022-10-17T01:09:45;101358.53;;;15.68;100.00
11190;BME280;5651;50.926;4.718;2022-10-17T01:12:24;101347.94;;;15.72;100.00
11190;BME280;5651;50.926;4.718;2022-10-17T01:17:59;101356.41;;;15.89;100.00
11190;BME280;5651;50.926;4.718;2022-10-17T01:20:40;101353.88;;;15.84;100.00
11190;BME280;5651;50.926;4.718;2022-10-17T01:23:23;101359.19;;;15.80;100.00
11190;BME280;5651;50.926;4.718;2022-10-17T01:25:56;101360.78;;;15.90;100.00
11190;BME280;5651;50.926;4.718;2022-10-17T01:31:45;101364.38;;;15.86;100.00
11190;BME280;5651;50.926;4.718;2022-10-17T01:36:49;101364.25;;;15.92;100.00
11190;BME280;5651;50.926;4.718;2022-10-17T01:44:58;101359.00;;;15.91;100.00
11190;BME280;5651;50.926;4.718;2022-10-17T01:47:28;101361.38;;;16.05;100.00
11190;BME280;5651;50.926;4.718;2022-10-17T01:50:08;101349.31;;;15.96;100.00
11190;BME280;5651;50.926;4.718;2022-10-17T01:52:41;101351.94;;;15.94;100.00
11190;BME280;5651;50.926;4.718;2022-10-17T01:55:28;101353.72;;;15.94;100.00
11190;BME280;5651;50.926;4.718;2022-10-17T01:58:00;101353.56;;;16.02;100.00
11190;BME280;5651;50.926;4.718;2022-10-17T02:00:31;101345.63;;;16.05;100.00
11190;BME280;5651;50.926;4.718;2022-10-17T02:02:59;101349.97;;;16.06;100.00
11190;BME280;5651;50.926;4.718;2022-10-17T02:05:38;101343.66;;;16.14;100.00
11190;BME280;5651;50.926;4.718;2022-10-17T02:08:05;101341.03;;;16.16;100.00
11190;BME280;5651;50.926;4.718;2022-10-17T02:10:59;101336.75;;;16.10;100.00
11190;BME280;5651;50.926;4.718;2022-10-17T02:21:48;101329.13;;;16.40;100.00
11190;BME280;5651;50.926;4.718;2022-10-17T02:24:44;101341.41;;;16.40;100.00
11190;BME280;5651;50.926;4.718;2022-10-17T02:30:04;101338.03;;;16.33;100.00
11190;BME280;5651;50.926;4.718;2022-10-17T02:32:58;101341.41;;;16.40;100.00
11190;BME280;5651;50.926;4.718;2022-10-17T02:35:29;101340.59;;;16.38;100.00
11190;BME280;5651;50.926;4.718;2022-10-17T02:37:57;101343.13;;;16.42;100.00
11190;BME280;5651;50.926;4.718;2022-10-17T02:40:26;101350.03;;;16.46;100.00
11190;BME280;5651;50.926;4.718;2022-10-17T02:42:54;101355.25;;;16.50;100.00
11190;BME280;5651;50.926;4.718;2022-10-17T02:45:22;101347.47;;;16.43;100.00
11190;BME280;5651;50.926;4.718;2022-10-17T02:50:26;101342.19;;;16.45;100.00
11190;BME280;5651;50.926;4.718;2022-10-17T02:52:58;101354.47;;;16.44;100.00
11190;BME280;5651;50.926;4.718;2022-10-17T02:55:32;101351.69;;;16.51;100.00
11190;BME280;5651;50.926;4.718;2022-10-17T02:58:03;101341.06;;;16.57;100.00
11190;BME280;5651;50.926;4.718;2022-10-17T03:00:31;101355.13;;;16.54;100.00
11190;BME280;5651;50.926;4.718;2022-10-17T03:02:57;101348.13;;;16.55;100.00
11190;BME280;5651;50.926;4.718;2022-10-17T03:05:26;101360.19;;;16.63;100.00
11190;BME280;5651;50.926;4.718;2022-10-17T03:07:52;101356.56;;;16.69;100.00
11190;BME280;5651;50.926;4.718;2022-10-17T03:10:19;101364.47;;;16.69;100.00
11190;BME280;5651;50.926;4.718;2022-10-17T03:12:45;101355.59;;;16.73;100.00
11190;BME280;5651;50.926;4.718;2022-10-17T03:15:11;101358.91;;;16.82;100.00
11190;BME280;5651;50.926;4.718;2022-10-17T03:17:37;101354.50;;;16.84;100.00
11190;BME280;5651;50.926;4.718;2022-10-17T03:20:04;101354.34;;;16.91;100.00
11190;BME280;5651;50.926;4.718;2022-10-17T03:22:30;101355.97;;;16.99;100.00
11190;BME280;5651;50.926;4.718;2022-10-17T03:24:56;101367.38;;;16.98;100.00
11190;BME280;5651;50.926;4.718;2022-10-17T03:27:22;101370.63;;;17.09;100.00
11190;BME280;5651;50.926;4.718;2022-10-17T03:29:48;101353.03;;;17.11;100.00
11190;BME280;5651;50.926;4.718;2022-10-17T03:32:13;101350.53;;;17.05;100.00
11190;BME280;5651;50.926;4.718;2022-10-17T03:34:39;101366.28;;;17.06;100.00
11190;BME280;5651;50.926;4.718;2022-10-17T03:37:05;101359.22;;;17.08;100.00
11190;BME280;5651;50.926;4.718;2022-10-17T03:39:31;101356.59;;;17.08;100.00
11190;BME280;5651;50.926;4.718;2022-10-17T03:41:56;101355.59;;;17.14;100.00
11190;BME280;5651;50.926;4.718;2022-10-17T03:44:22;101359.91;;;17.17;100.00
11190;BME280;5651;50.926;4.718;2022-10-17T03:46:48;101354.66;;;17.15;100.00
11190;BME280;5651;50.926;4.718;2022-10-17T03:49:13;101358.22;;;17.14;100.00
11190;BME280;5651;50.926;4.718;2022-10-17T03:51:39;101360.06;;;17.10;100.00
11190;BME280;5651;50.926;4.718;2022-10-17T03:54:05;101356.59;;;17.08;100.00
11190;BME280;5651;50.926;4.718;2022-10-17T03:56:31;101353.09;;;17.08;100.00
11190;BME280;5651;50.926;4.718;2022-10-17T03:58:56;101358.41;;;17.06;100.00
11190;BME280;5651;50.926;4.718;2022-10-17T04:01:22;101348.69;;;17.08;100.00
11190;BME280;5651;50.926;4.718;2022-10-17T04:03:50;101356.56;;;17.10;100.00
11190;BME280;5651;50.926;4.718;2022-10-17T04:06:16;101367.97;;;17.10;100.00
11190;BME280;5651;50.926;4.718;2022-10-17T04:08:42;101370.63;;;17.09;100.00
11190;BME280;5651;50.926;4.718;2022-10-17T04:11:10;101373.19;;;17.12;100.00
11190;BME280;5651;50.926;4.718;2022-10-17T04:13:38;101379.31;;;17.13;100.00
11190;BME280;5651;50.926;4.718;2022-10-17T04:16:06;101373.25;;;17.10;100.00
11190;BME280;5651;50.926;4.718;2022-10-17T04:18:32;101375.00;;;17.10;100.00
11190;BME280;5651;50.926;4.718;2022-10-17T04:21:02;101382.84;;;17.13;100.00
11190;BME280;5651;50.926;4.718;2022-10-17T04:23:28;101396.00;;;17.13;100.00
11190;BME280;5651;50.926;4.718;2022-10-17T04:25:55;101397.69;;;17.16;100.00
11190;BME280;5651;50.926;4.718;2022-10-17T04:28:22;101398.53;;;17.16;100.00
11190;BME280;5651;50.926;4.718;2022-10-17T04:31:04;101396.81;;;17.15;100.00
11190;BME280;5651;50.926;4.718;2022-10-17T04:33:31;101398.53;;;17.18;100.00
11190;BME280;5651;50.926;4.718;2022-10-17T04:36:05;101400.38;;;17.14;100.00
11190;BME280;5651;50.926;4.718;2022-10-17T04:38:32;101396.81;;;17.15;100.00
11190;BME280;5651;50.926;4.718;2022-10-17T04:40:59;101402.84;;;17.20;100.00
11190;BME280;5651;50.926;4.718;2022-10-17T04:43:32;101411.69;;;17.18;100.00
11190;BME280;5651;50.926;4.718;2022-10-17T04:46:00;101411.72;;;17.16;100.00
11190;BME280;5651;50.926;4.718;2022-10-17T04:48:28;101404.75;;;17.14;100.00
11190;BME280;5651;50.926;4.718;2022-10-17T04:50:54;101407.31;;;17.17;100.00
11190;BME280;5651;50.926;4.718;2022-10-17T04:53:21;101406.34;;;17.21;100.00
11190;BME280;5651;50.926;4.718;2022-10-17T04:55:47;101406.50;;;17.15;100.00
11190;BME280;5651;50.926;4.718;2022-10-17T04:58:13;101401.22;;;17.15;100.00
11190;BME280;5651;50.926;4.718;2022-10-17T05:00:39;101407.38;;;17.14;100.00
11190;BME280;5651;50.926;4.718;2022-10-17T05:03:05;101413.41;;;17.19;100.00
11190;BME280;5651;50.926;4.718;2022-10-17T05:05:31;101423.22;;;17.12;100.00
11190;BME280;5651;50.926;4.718;2022-10-17T05:07:56;101432.81;;;17.15;100.00
11190;BME280;5651;50.926;4.718;2022-10-17T05:10:22;101436.31;;;17.17;100.00
11190;BME280;5651;50.926;4.718;2022-10-17T05:12:49;101430.94;;;17.20;100.00
11190;BME280;5651;50.926;4.718;2022-10-17T05:15:15;101427.50;;;17.16;100.00
11190;BME280;5651;50.926;4.718;2022-10-17T05:17:41;101441.66;;;17.12;100.00
11190;BME280;5651;50.926;4.718;2022-10-17T05:20:08;101432.88;;;17.11;100.00
11190;BME280;5651;50.926;4.718;2022-10-17T05:22:34;101430.34;;;17.08;100.00
11190;BME280;5651;50.926;4.718;2022-10-17T05:24:59;101437.41;;;17.06;100.00
11190;BME280;5651;50.926;4.718;2022-10-17T05:27:25;101435.75;;;17.02;100.00
11190;BME280;5651;50.926;4.718;2022-10-17T05:29:51;101433.13;;;17.01;100.00
11190;BME280;5651;50.926;4.718;2022-10-17T05:32:16;101431.44;;;16.98;100.00
11190;BME280;5651;50.926;4.718;2022-10-17T05:34:42;101434.09;;;16.97;100.00
11190;BME280;5651;50.926;4.718;2022-10-17T05:37:08;101437.59;;;16.97;100.00
11190;BME280;5651;50.926;4.718;2022-10-17T05:39:34;101434.94;;;16.99;100.00
11190;BME280;5651;50.926;4.718;2022-10-17T05:42:00;101441.00;;;17.02;100.00
11190;BME280;5651;50.926;4.718;2022-10-17T05:44:25;101443.56;;;17.05;100.00
11190;BME280;5651;50.926;4.718;2022-10-17T05:46:51;101447.88;;;17.09;100.00
11190;BME280;5651;50.926;4.718;2022-10-17T05:49:17;101450.41;;;17.13;100.00
11190;BME280;5651;50.926;4.718;2022-10-17T05:51:43;101446.03;;;17.13;100.00
11190;BME280;5651;50.926;4.718;2022-10-17T05:54:09;101450.41;;;17.14;100.00
11190;BME280;5651;50.926;4.718;2022-10-17T05:56:34;101453.75;;;17.21;100.00
11190;BME280;5651;50.926;4.718;2022-10-17T05:59:00;101439.63;;;17.23;100.00
11190;BME280;5651;50.926;4.718;2022-10-17T06:01:26;101443.97;;;17.26;100.00
11190;BME280;5651;50.926;4.718;2022-10-17T06:03:52;101439.53;;;17.28;100.00
11190;BME280;5651;50.926;4.718;2022-10-17T06:06:18;101447.44;;;17.28;100.00
11190;BME280;5651;50.926;4.718;2022-10-17T06:08:44;101449.06;;;17.34;100.00
11190;BME280;5651;50.926;4.718;2022-10-17T06:11:11;101449.81;;;17.39;100.00
11190;BME280;5651;50.926;4.718;2022-10-17T06:13:37;101449.81;;;17.40;100.00
11190;BME280;5651;50.926;4.718;2022-10-17T06:16:04;101448.03;;;17.41;100.00
11190;BME280;5651;50.926;4.718;2022-10-17T06:18:30;101447.97;;;17.42;100.00
11190;BME280;5651;50.926;4.718;2022-10-17T06:21:04;101454.09;;;17.45;100.00
11190;BME280;5651;50.926;4.718;2022-10-17T06:23:31;101459.34;;;17.45;100.00
11190;BME280;5651;50.926;4.718;2022-10-17T06:26:01;101449.63;;;17.48;100.00
11190;BME280;5651;50.926;4.718;2022-10-17T06:28:26;101440.75;;;17.51;100.00
11190;BME280;5651;50.926;4.718;2022-10-17T06:30:52;101441.66;;;17.50;100.00
11190;BME280;5651;50.926;4.718;2022-10-17T06:33:18;101455.75;;;17.49;100.00
11190;BME280;5651;50.926;4.718;2022-10-17T06:35:52;101471.31;;;17.60;100.00
11190;BME280;5651;50.926;4.718;2022-10-17T06:38:19;101477.50;;;17.57;100.00
11190;BME280;5651;50.926;4.718;2022-10-17T06:40:45;101484.44;;;17.61;100.00
11190;BME280;5651;50.926;4.718;2022-10-17T06:43:11;101491.31;;;17.68;100.00
11190;BME280;5651;50.926;4.718;2022-10-17T06:45:38;101507.19;;;17.65;100.00
11190;BME280;5651;50.926;4.718;2022-10-17T06:48:04;101512.31;;;17.71;100.00
11190;BME280;5651;50.926;4.718;2022-10-17T06:50:30;101524.38;;;17.82;100.00
11190;BME280;5651;50.926;4.718;2022-10-17T06:52:56;101526.16;;;17.81;100.00
11190;BME280;5651;50.926;4.718;2022-10-17T06:55:21;101534.88;;;17.85;100.00
11190;BME280;5651;50.926;4.718;2022-10-17T06:57:47;101547.94;;;17.89;100.00
11190;BME280;5651;50.926;4.718;2022-10-17T07:00:13;101558.41;;;17.93;100.00
11190;BME280;5651;50.926;4.718;2022-10-17T07:02:41;101553.91;;;17.98;100.00
11190;BME280;5651;50.926;4.718;2022-10-17T07:05:07;101566.97;;;18.02;100.00
11190;BME280;5651;50.926;4.718;2022-10-17T07:07:33;101562.53;;;18.04;100.00
11190;BME280;5651;50.926;4.718;2022-10-17T07:09:58;101561.31;;;18.19;100.00
11190;BME280;5651;50.926;4.718;2022-10-17T07:12:24;101570.97;;;18.19;100.00
11190;BME280;5651;50.926;4.718;2022-10-17T07:14:50;101577.78;;;18.29;100.00
11190;BME280;5651;50.926;4.718;2022-10-17T07:17:16;101582.16;;;18.30;100.00
11190;BME280;5651;50.926;4.718;2022-10-17T07:19:43;101587.16;;;18.40;100.00
11190;BME280;5651;50.926;4.718;2022-10-17T07:22:10;101593.38;;;18.39;100.00
11190;BME280;5651;50.926;4.718;2022-10-17T07:24:36;101599.63;;;18.34;100.00
11190;BME280;5651;50.926;4.718;2022-10-17T07:27:02;101604.84;;;18.37;100.00
11190;BME280;5651;50.926;4.718;2022-10-17T07:29:28;101615.94;;;18.50;100.00
11190;BME280;5651;50.926;4.718;2022-10-17T07:31:54;101635.16;;;18.56;100.00
11190;BME280;5651;50.926;4.718;2022-10-17T07:34:19;101632.13;;;18.71;100.00
11190;BME280;5651;50.926;4.718;2022-10-17T07:36:45;101631.63;;;18.57;100.00
11190;BME280;5651;50.926;4.718;2022-10-17T07:39:11;101633.31;;;18.59;100.00
11190;BME280;5651;50.926;4.718;2022-10-17T07:41:37;101640.91;;;18.72;100.00
11190;BME280;5651;50.926;4.718;2022-10-17T07:44:03;101655.72;;;18.77;100.00
11190;BME280;5651;50.926;4.718;2022-10-17T07:46:29;101656.75;;;18.72;100.00
11190;BME280;5651;50.926;4.718;2022-10-17T07:48:54;101668.31;;;18.67;100.00
11190;BME280;5651;50.926;4.718;2022-10-17T07:51:20;101673.59;;;18.66;100.00
11190;BME280;5651;50.926;4.718;2022-10-17T07:53:46;101682.09;;;18.79;100.00
11190;BME280;5651;50.926;4.718;2022-10-17T07:56:12;101688.56;;;18.67;100.00
11190;BME280;5651;50.926;4.718;2022-10-17T07:58:38;101694.81;;;18.63;100.00
11190;BME280;5651;50.926;4.718;2022-10-17T08:01:09;101708.97;;;18.60;100.00
11190;BME280;5651;50.926;4.718;2022-10-17T08:03:40;101702.69;;;18.64;100.00
11190;BME280;5651;50.926;4.718;2022-10-17T08:06:06;101702.78;;;18.61;100.00
11190;BME280;5651;50.926;4.718;2022-10-17T08:08:31;101708.13;;;18.58;100.00
11190;BME280;5651;50.926;4.718;2022-10-17T08:11:03;101706.50;;;18.52;100.00
11190;BME280;5651;50.926;4.718;2022-10-17T08:13:29;101703.91;;;18.51;100.00
11190;BME280;5651;50.926;4.718;2022-10-17T08:15:59;101692.50;;;18.49;100.00
11190;BME280;5651;50.926;4.718;2022-10-17T08:18:25;101699.59;;;18.47;100.00
11190;BME280;5651;50.926;4.718;2022-10-17T08:20:50;101697.78;;;18.50;100.00
11190;BME280;5651;50.926;4.718;2022-10-17T08:23:16;101702.91;;;18.55;100.00
11190;BME280;5651;50.926;4.718;2022-10-17T08:25:42;101698.47;;;18.57;100.00
11190;BME280;5651;50.926;4.718;2022-10-17T08:28:08;101704.53;;;18.61;100.00
11190;BME280;5651;50.926;4.718;2022-10-17T08:30:36;101713.47;;;18.57;100.00
11190;BME280;5651;50.926;4.718;2022-10-17T08:33:02;101758.19;;;18.63;100.00
11190;BME280;5651;50.926;4.718;2022-10-17T08:35:28;101808.19;;;18.69;100.00
11190;BME280;5651;50.926;4.718;2022-10-17T08:37:54;101776.25;;;18.42;100.00
11190;BME280;5651;50.926;4.718;2022-10-17T08:40:24;101761.69;;;18.24;100.00
11190;BME280;5651;50.926;4.718;2022-10-17T08:42:58;101722.00;;;18.30;100.00
11190;BME280;5651;50.926;4.718;2022-10-17T08:45:54;101710.50;;;18.33;100.00
11190;BME280;5651;50.926;4.718;2022-10-17T08:48:22;101702.56;;;18.33;100.00
11190;BME280;5651;50.926;4.718;2022-10-17T08:53:28;101707.75;;;18.36;100.00
11190;BME280;5651;50.926;4.718;2022-10-17T08:55:56;101705.13;;;18.36;100.00
11190;BME280;5651;50.926;4.718;2022-10-17T08:58:27;101711.25;;;18.38;100.00
11190;BME280;5651;50.926;4.718;2022-10-17T09:20:00;101680.22;;;18.48;100.00
11190;BME280;5651;50.926;4.718;2022-10-17T09:22:33;101671.44;;;18.47;100.00
11190;BME280;5651;50.926;4.718;2022-10-17T09:25:05;101669.75;;;18.45;100.00
11190;BME280;5651;50.926;4.718;2022-10-17T09:27:50;101690.94;;;18.42;100.00
11190;BME280;5651;50.926;4.718;2022-10-17T09:30:33;101695.38;;;18.40;100.00
11190;BME280;5651;50.926;4.718;2022-10-17T09:33:00;101690.97;;;18.40;100.00
11190;BME280;5651;50.926;4.718;2022-10-17T09:35:27;101695.38;;;18.40;100.00
11190;BME280;5651;50.926;4.718;2022-10-17T09:37:54;101704.13;;;18.42;100.00
11190;BME280;5651;50.926;4.718;2022-10-17T09:40:30;101713.81;;;18.41;100.00
11190;BME280;5651;50.926;4.718;2022-10-17T09:42:57;101716.41;;;18.43;100.00
11190;BME280;5651;50.926;4.718;2022-10-17T09:45:27;101729.63;;;18.43;100.00
11190;BME280;5651;50.926;4.718;2022-10-17T09:48:07;101732.16;;;18.47;100.00
11190;BME280;5651;50.926;4.718;2022-10-17T09:50:35;101722.56;;;18.43;100.00
11190;BME280;5651;50.926;4.718;2022-10-17T09:53:12;101732.19;;;18.46;100.00
11190;BME280;5651;50.926;4.718;2022-10-17T09:55:45;101736.59;;;18.45;100.00
11190;BME280;5651;50.926;4.718;2022-10-17T09:58:13;101741.81;;;18.48;100.00
11190;BME280;5651;50.926;4.718;2022-10-17T10:00:41;101754.06;;;18.51;100.00
11190;BME280;5651;50.926;4.718;2022-10-17T10:08:32;101768.09;;;18.53;100.00
11190;BME280;5651;50.926;4.718;2022-10-17T10:11:01;101787.38;;;18.55;100.00
11190;BME280;5651;50.926;4.718;2022-10-17T10:13:30;101793.50;;;18.57;100.00
11190;BME280;5651;50.926;4.718;2022-10-17T10:16:16;101811.03;;;18.61;100.00
11190;BME280;5651;50.926;4.718;2022-10-17T10:18:42;101794.31;;;18.61;100.00
11190;BME280;5651;50.926;4.718;2022-10-17T10:23:35;101814.47;;;18.65;100.00
11190;BME280;5651;50.926;4.718;2022-10-17T10:26:26;101812.63;;;18.68;100.00
11190;BME280;5651;50.926;4.718;2022-10-17T10:29:01;101809.94;;;18.70;100.00
11190;BME280;5651;50.926;4.718;2022-10-17T10:31:38;101814.31;;;18.71;100.00
11190;BME280;5651;50.926;4.718;2022-10-17T10:34:21;101822.19;;;18.73;100.00
11190;BME280;5651;50.926;4.718;2022-10-17T10:37:03;101822.25;;;18.69;100.00
11190;BME280;5651;50.926;4.718;2022-10-17T10:39:34;101828.38;;;18.72;100.00
11190;BME280;5651;50.926;4.718;2022-10-17T10:42:02;101817.66;;;18.78;100.00
11190;BME280;5651;50.926;4.718;2022-10-17T10:44:29;101825.59;;;18.78;100.00
11190;BME280;5651;50.926;4.718;2022-10-17T10:47:29;101828.13;;;18.84;100.00
11190;BME280;5651;50.926;4.718;2022-10-17T10:55:35;101847.28;;;18.92;100.00
11190;BME280;5651;50.926;4.718;2022-10-17T10:58:14;101856.84;;;18.99;100.00
11190;BME280;5651;50.926;4.718;2022-10-17T11:00:43;101857.75;;;18.98;100.00
11190;BME280;5651;50.926;4.718;2022-10-17T11:03:16;101860.28;;;19.02;100.00
11190;BME280;5651;50.926;4.718;2022-10-17T11:05:50;101868.22;;;19.03;100.00
11190;BME280;5651;50.926;4.718;2022-10-17T11:09:11;101864.69;;;19.03;100.00
11190;BME280;5651;50.926;4.718;2022-10-17T11:11:34;101861.19;;;19.02;100.00
11190;BME280;5651;50.926;4.718;2022-10-17T11:16:53;101869.06;;;19.04;100.00
11190;BME280;5651;50.926;4.718;2022-10-17T11:19:30;101877.88;;;19.03;100.00
11190;BME280;5651;50.926;4.718;2022-10-17T11:24:47;101867.31;;;19.03;100.00
11190;BME280;5651;50.926;4.718;2022-10-17T11:27:15;101877.81;;;19.06;100.00
11190;BME280;5651;50.926;4.718;2022-10-17T11:29:41;101877.75;;;19.09;100.00
11190;BME280;5651;50.926;4.718;2022-10-17T11:32:30;101863.56;;;19.13;100.00
11190;BME280;5651;50.926;4.718;2022-10-17T11:35:06;101878.56;;;19.11;100.00
11190;BME280;5651;50.926;4.718;2022-10-17T11:37:38;101884.69;;;19.13;100.00
11190;BME280;5651;50.926;4.718;2022-10-17T11:40:19;101887.03;;;19.25;100.00
11190;BME280;5651;50.926;4.718;2022-10-17T11:42:58;101887.00;;;19.27;100.00
11190;BME280;5651;50.926;4.718;2022-10-17T11:45:27;101895.72;;;19.30;100.00
11190;BME280;5651;50.926;4.718;2022-10-17T11:48:05;101897.47;;;19.31;100.00
11190;BME280;5651;50.926;4.718;2022-10-17T11:50:34;101903.78;;;19.24;100.00
11190;BME280;5651;50.926;4.718;2022-10-17T11:53:13;101911.03;;;19.16;100.00
11190;BME280;5651;50.926;4.718;2022-10-17T11:55:41;101911.13;;;19.11;100.00
11190;BME280;5651;50.926;4.718;2022-10-17T12:06:38;101922.41;;;19.20;100.00
11190;BME280;5651;50.926;4.718;2022-10-17T12:12:02;101930.22;;;19.26;100.00
11190;BME280;5651;50.926;4.718;2022-10-17T12:17:00;101942.47;;;19.28;100.00
11190;BME280;5651;50.926;4.718;2022-10-17T12:19:31;101961.03;;;19.25;100.00
11190;BME280;5651;50.926;4.718;2022-10-17T12:22:04;101957.56;;;19.23;100.00
11190;BME280;5651;50.926;4.718;2022-10-17T12:24:38;101962.94;;;19.20;100.00
11190;BME280;5651;50.926;4.718;2022-10-17T12:30:14;101958.59;;;19.18;100.00
11190;BME280;5651;50.926;4.718;2022-10-17T12:35:37;101952.56;;;19.11;100.00
11190;BME280;5651;50.926;4.718;2022-10-17T12:45:44;101976.16;;;19.19;100.00
11190;BME280;5651;50.926;4.718;2022-10-17T12:56:20;101996.13;;;19.32;100.00
11190;BME280;5651;50.926;4.718;2022-10-17T12:58:48;101987.22;;;19.36;100.00
11190;BME280;5651;50.926;4.718;2022-10-17T13:01:23;101999.44;;;19.42;100.00
11190;BME280;5651;50.926;4.718;2022-10-17T13:03:52;102002.06;;;19.42;100.00
11190;BME280;5651;50.926;4.718;2022-10-17T13:06:25;102001.19;;;19.41;100.00
11190;BME280;5651;50.926;4.718;2022-10-17T13:09:05;102005.56;;;19.44;100.00
11190;BME280;5651;50.926;4.718;2022-10-17T13:11:33;101992.09;;;19.53;100.00
11190;BME280;5651;50.926;4.718;2022-10-17T13:14:02;101994.00;;;19.48;100.00
11190;BME280;5651;50.926;4.718;2022-10-17T13:16:49;101999.53;;;19.37;100.00
11190;BME280;5651;50.926;4.718;2022-10-17T13:19:18;102007.41;;;19.40;100.00
11190;BME280;5651;50.926;4.718;2022-10-17T13:21:54;102020.63;;;19.39;100.00
11190;BME280;5651;50.926;4.718;2022-10-17T13:24:28;102017.03;;;19.43;100.00
11190;BME280;5651;50.926;4.718;2022-10-17T13:26:54;102023.03;;;19.50;100.00
11190;BME280;5651;50.926;4.718;2022-10-17T13:29:20;102042.13;;;19.62;100.00
11190;BME280;5651;50.926;4.718;2022-10-17T13:31:57;102043.03;;;19.61;100.00
11190;BME280;5651;50.926;4.718;2022-10-17T13:34:26;102048.16;;;19.68;100.00
11190;BME280;5651;50.926;4.718;2022-10-17T13:36:58;102039.13;;;19.78;100.00
11190;BME280;5651;50.926;4.718;2022-10-17T13:39:27;102035.16;;;19.98;100.00
11190;BME280;5651;50.926;4.718;2022-10-17T13:41:55;102051.28;;;19.87;100.00
11190;BME280;5651;50.926;4.718;2022-10-17T13:44:27;102051.59;;;19.73;100.00
11190;BME280;5651;50.926;4.718;2022-10-17T13:46:56;102058.84;;;19.64;100.00
11190;BME280;5651;50.926;4.718;2022-10-17T13:49:33;102054.28;;;19.71;100.00
11190;BME280;5651;50.926;4.718;2022-10-17T13:52:03;102055.75;;;19.83;100.00
11190;BME280;5651;50.926;4.718;2022-10-17T13:54:37;102057.94;;;19.64;100.00
11190;BME280;5651;50.926;4.718;2022-10-17T13:59:43;102056.63;;;19.85;100.00
11190;BME280;5651;50.926;4.718;2022-10-17T14:02:18;102055.75;;;19.83;100.00
11190;BME280;5651;50.926;4.718;2022-10-17T14:04:44;102055.66;;;19.89;100.00
11190;BME280;5651;50.926;4.718;2022-10-17T14:07:26;102062.97;;;19.76;100.00
11190;BME280;5651;50.926;4.718;2022-10-17T14:09:53;102053.41;;;19.71;100.00
11190;BME280;5651;50.926;4.718;2022-10-17T14:12:20;102056.94;;;19.70;100.00
11190;BME280;5651;50.926;4.718;2022-10-17T14:14:51;102053.50;;;19.66;100.00
11190;BME280;5651;50.926;4.718;2022-10-17T14:17:25;102054.50;;;19.62;100.00
11190;BME280;5651;50.926;4.718;2022-10-17T14:19:53;102054.56;;;19.59;100.00
11190;BME280;5651;50.926;4.718;2022-10-17T14:22:26;102047.63;;;19.55;100.00
11190;BME280;5651;50.926;4.718;2022-10-17T14:24:53;102046.94;;;19.45;100.00
11190;BME280;5651;50.926;4.718;2022-10-17T14:27:36;102054.00;;;19.44;100.00
11190;BME280;5651;50.926;4.718;2022-10-17T14:30:05;102060.19;;;19.43;100.00
11190;BME280;5651;50.926;4.718;2022-10-17T14:32:34;102068.22;;;19.40;100.00
11190;BME280;5651;50.926;4.718;2022-10-17T14:35:03;102064.75;;;19.37;100.00
11190;BME280;5651;50.926;4.718;2022-10-17T14:37:41;102081.63;;;19.31;100.00
11190;BME280;5651;50.926;4.718;2022-10-17T14:40:31;102087.75;;;19.31;100.00
11190;BME280;5651;50.926;4.718;2022-10-17T14:43:01;102084.25;;;19.31;100.00
11190;BME280;5651;50.926;4.718;2022-10-17T14:45:35;102087.72;;;19.35;100.00
11190;BME280;5651;50.926;4.718;2022-10-17T14:48:14;102099.03;;;19.40;100.00
11190;BME280;5651;50.926;4.718;2022-10-17T14:50:41;102102.50;;;19.43;100.00